Las Palmas de Gran Canaria, Spain

01:47 AM WEST on Juli 21, 2017 (GMT +0100)
Tejeda, Lomo de los Santos | | Change Station

Elev 3609 ft 28.00 °N, 15.61 °W | Updated 1 second ago

Molnigt
Molnigt
89.6 °F
Feels Like 86 °F
N
3.5
Vind Växlande Vind from S/SV
Gusts 3.5 miles/tim

Idag
High -- | Low -- °F
--% Chance of Precip.
Yesterday
High -- | Low -- °F
Precip. -- tum
Lufttryck 30.15 tum
Sikt 6.2 miles
Molnigt Mestadels molnigt 600 ft
Molnigt 1000 ft
Värmeindex 86 °F
Daggpunkt 28 °F
Luftfuktighet 11%
Rainfall 0.00 tum
Snow Depth Not available.
7:18 AM 8:58 PM
Fjärde kvarteret, 8% visible
METAR GCXO 210030Z AUTO 30018KT 260V340 9999 BKN006/// OVC010/// 17/16 Q1021
Lufttryck 30.15 tum
Sikt 6.2 miles
Molnigt Mestadels molnigt 600 ft
Molnigt 1000 ft
Värmeindex 86 °F
Daggpunkt 28 °F
Luftfuktighet 11%
Rainfall 0.00 tum
Snow Depth Not available.
7:18 AM 8:58 PM
Fjärde kvarteret, 8% visible
METAR GCXO 210030Z AUTO 30018KT 260V340 9999 BKN006/// OVC010/// 17/16 Q1021

Get Severe Weather Alerts

Thanks for signing up!

Be on the lookout for a verification email in your inbox.

You'll start receiving the daily forecast at 6 AM.

×

10-Day Weather Forecast

×

Almanac

Astronomi

Jul. 21, 2017 Rise Set
Actual Time
Civil Twilight
Nautical Twilight
Astronomical Twilight
Månen
Length Of Visible Light
Dagens längd
Tomorrow will be .
, % of the Moon is Illuminated

Today's Extremes

Country Highs Country Lows

Community

WunderPhotos

Category 6

Welcome to Category 6. This is the collective home for Weather Underground's featured writeups by Dr. Jeff Masters (right), Bob Henson (left), Chris Burt, and other regular contributors.

Nearby

Air Quality

  Air Quality AQ Index Pollutant
Not available.

Snödjup

Station Depth Elevation

Earthquake Activity

Stad Distance Mag. Time & Date
Minimum magnitude displayed is 2.5.

Coastal Water Temperatures

Plats Temperatur

Stations

Nearby Weather Stations

Station Location Temp Vindavkylning Daggpunkt Luftfuktighet Vind Precip. Elev Uppdaterad Type